Time;durP1;ratioP1;P1;durP2;ratioP2;P2;SDS_P1;SDS_P2;PMS_P1;PMS_P2;Temp;Humidity;BMP_temperature;BMP_pressure;BME280_temperature;BME280_humidity;BME280_pressure;Samples;Min_cycle;Max_cycle;Signal;HPM_P1;HPM_P2
2023/08/29 00:00:23;;;;;;;19.10;14.27;;;665.60;1945.60;;;;;;5028549;28;20013;-68
2023/08/29 00:02:49;;;;;;;15.38;13.65;;;665.70;1945.60;;;;;;5028524;28;20098;-67
2023/08/29 00:05:14;;;;;;;15.27;13.68;;;665.70;1945.60;;;;;;5028724;28;20381;-67
2023/08/29 00:07:42;;;;;;;17.05;14.10;;;665.70;1945.60;;;;;;5028968;28;20420;-67
2023/08/29 00:10:08;;;;;;;16.75;14.35;;;665.70;1971.20;;;;;;5028287;28;20040;-66
2023/08/29 00:12:33;;;;;;;18.40;14.00;;;665.80;1971.20;;;;;;5028799;28;20029;-66
2023/08/29 00:15:00;;;;;;;17.77;15.88;;;665.90;1971.20;;;;;;5028414;28;20041;-67
2023/08/29 00:17:26;;;;;;;22.17;14.10;;;665.90;1971.20;;;;;;5028564;28;20025;-66
2023/08/29 00:19:53;;;;;;;18.90;14.05;;;665.90;1971.20;;;;;;5029039;28;20017;-66
2023/08/29 00:22:19;;;;;;;19.65;13.93;;;666.00;1971.20;;;;;;5032361;28;20025;-66
2023/08/29 00:24:45;;;;;;;18.30;14.52;;;666.20;1971.20;;;;;;5032272;28;20045;-68
2023/08/29 00:27:11;;;;;;;16.33;14.38;;;666.20;1971.20;;;;;;5032649;28;20034;-66
2023/08/29 00:29:37;;;;;;;16.08;13.70;;;666.20;1971.20;;;;;;5031875;28;20079;-68
2023/08/29 00:32:03;;;;;;;23.58;15.70;;;666.20;1996.80;;;;;;5032572;28;20036;-68
2023/08/29 00:34:28;;;;;;;19.60;15.00;;;666.20;1996.80;;;;;;5032241;28;20383;-68
2023/08/29 00:36:54;;;;;;;17.63;14.45;;;666.20;1996.80;;;;;;5031112;28;20037;-66
2023/08/29 00:39:20;;;;;;;21.33;15.65;;;666.20;1996.80;;;;;;5032263;28;20026;-68
2023/08/29 00:41:49;;;;;;;15.77;14.13;;;666.20;1996.80;;;;;;5032099;28;20022;-68
2023/08/29 00:44:18;;;;;;;19.80;14.50;;;666.20;1996.80;;;;;;5031560;28;20042;-67
2023/08/29 00:46:45;;;;;;;25.08;15.00;;;666.20;1996.80;;;;;;5032076;28;20029;-67
2023/08/29 00:49:14;;;;;;;19.67;14.35;;;666.30;1996.80;;;;;;5030880;28;20056;-69
2023/08/29 00:51:40;;;;;;;20.67;14.75;;;666.20;1996.80;;;;;;5032168;28;20370;-68
2023/08/29 00:54:07;;;;;;;18.55;15.13;;;666.30;1996.80;;;;;;5031545;28;20080;-67
2023/08/29 00:56:33;;;;;;;21.17;15.52;;;666.20;1996.80;;;;;;5032174;28;20430;-67
2023/08/29 00:59:00;;;;;;;22.77;15.23;;;666.20;1996.80;;;;;;5031882;28;20021;-68
2023/08/29 01:01:26;;;;;;;19.38;15.75;;;666.20;2022.40;;;;;;5031882;28;20037;-69
2023/08/29 01:03:52;;;;;;;21.15;14.68;;;666.20;2022.40;;;;;;5032087;28;20041;-68
2023/08/29 01:06:18;;;;;;;24.42;15.13;;;666.20;2022.40;;;;;;5018620;28;20052;-67
2023/08/29 01:08:44;;;;;;;17.50;15.07;;;666.10;2022.40;;;;;;5031449;28;20056;-65
2023/08/29 01:11:25;;;;;;;18.52;14.65;;;666.00;2048.00;;;;;;5031766;28;20117;-66
2023/08/29 01:14:01;;;;;;;18.73;14.25;;;666.00;2022.40;;;;;;5031746;28;20029;-68
2023/08/29 01:16:38;;;;;;;20.60;14.40;;;665.90;2048.00;;;;;;5031311;28;20105;-67
2023/08/29 01:19:12;;;;;;;19.40;14.68;;;665.70;2073.60;;;;;;5031789;28;20025;-67
2023/08/29 01:22:16;;;;;;;18.38;14.63;;;665.70;2048.00;;;;;;5030872;28;20036;-66
2023/08/29 01:24:52;;;;;;;19.77;14.77;;;665.70;2048.00;;;;;;5048653;28;20040;-66
2023/08/29 01:27:19;;;;;;;19.83;14.43;;;665.70;2048.00;;;;;;5047821;28;20033;-66
2023/08/29 01:29:48;;;;;;;19.42;15.32;;;665.80;2048.00;;;;;;5048712;28;20059;-67
2023/08/29 01:32:15;;;;;;;16.63;14.90;;;665.60;2073.60;;;;;;5048417;28;20040;-67
2023/08/29 01:34:44;;;;;;;25.25;15.45;;;665.60;2073.60;;;;;;5048750;28;20586;-68
2023/08/29 01:37:10;;;;;;;18.42;15.10;;;665.70;2073.60;;;;;;5048642;28;20036;-67
2023/08/29 01:39:37;;;;;;;20.02;15.93;;;665.60;2124.80;;;;;;5048340;28;20079;-67
2023/08/29 01:42:02;;;;;;;20.73;15.32;;;665.60;2124.80;;;;;;5048592;28;20123;-68
2023/08/29 01:44:28;;;;;;;18.90;14.82;;;640.80;2099.20;;;;;;5035391;28;20108;-68
2023/08/29 01:46:54;;;;;;;20.60;16.17;;;640.70;2124.80;;;;;;5048098;28;20035;-67
2023/08/29 01:49:19;;;;;;;18.88;15.38;;;640.70;2099.20;;;;;;5045820;28;20036;-67
2023/08/29 01:51:45;;;;;;;17.27;13.80;;;640.80;2073.60;;;;;;5048457;28;20104;-69
2023/08/29 01:54:11;;;;;;;16.48;14.57;;;640.80;2073.60;;;;;;5046595;28;20044;-67
2023/08/29 01:56:39;;;;;;;18.17;15.18;;;640.80;2073.60;;;;;;5038314;28;20043;-66
2023/08/29 01:59:06;;;;;;;18.55;14.32;;;640.70;2073.60;;;;;;5048168;28;20056;-66
2023/08/29 02:01:33;;;;;;;20.20;15.43;;;640.70;2073.60;;;;;;5032848;28;20034;-67
2023/08/29 02:03:58;;;;;;;17.60;15.32;;;640.60;2073.60;;;;;;5030708;28;20548;-67
2023/08/29 02:06:24;;;;;;;17.50;14.52;;;640.60;2099.20;;;;;;5030553;28;20130;-67
2023/08/29 02:08:50;;;;;;;21.80;15.55;;;640.70;2124.80;;;;;;5030467;28;20082;-67
2023/08/29 02:11:16;;;;;;;19.63;13.20;;;640.60;2124.80;;;;;;5030231;28;20025;-66
2023/08/29 02:13:42;;;;;;;16.50;14.80;;;640.60;2150.40;;;;;;5030599;28;20021;-66
2023/08/29 02:16:07;;;;;;;20.08;15.77;;;640.50;2176.00;;;;;;5030158;28;20029;-66
2023/08/29 02:18:33;;;;;;;18.73;15.85;;;640.20;2252.80;;;;;;5030650;28;20025;-67
2023/08/29 02:20:59;;;;;;;17.65;15.75;;;640.10;2227.20;;;;;;5030245;28;20017;-66
2023/08/29 02:23:25;;;;;;;19.55;15.20;;;640.20;2176.00;;;;;;5029988;28;20048;-66
2023/08/29 02:26:04;;;;;;;17.90;16.00;;;640.20;2201.60;;;;;;5030371;28;20036;-67
2023/08/29 02:28:38;;;;;;;16.98;14.57;;;640.10;2201.60;;;;;;5030651;28;20420;-67
2023/08/29 02:31:08;;;;;;;22.38;16.65;;;640.00;2201.60;;;;;;5030250;28;20017;-68
2023/08/29 02:33:35;;;;;;;17.65;14.45;;;640.00;2176.00;;;;;;5030299;28;20080;-68
2023/08/29 02:36:04;;;;;;;17.35;15.60;;;640.20;2150.40;;;;;;5030398;28;20021;-68
2023/08/29 02:38:30;;;;;;;19.42;15.88;;;640.20;2176.00;;;;;;5029958;28;20033;-68
2023/08/29 02:40:56;;;;;;;19.15;14.82;;;640.20;2176.00;;;;;;5029649;28;20029;-68
2023/08/29 02:43:21;;;;;;;22.10;16.83;;;640.10;2150.40;;;;;;5029082;28;20052;-68
2023/08/29 02:45:51;;;;;;;20.73;15.07;;;640.10;2201.60;;;;;;5029277;28;20029;-67
2023/08/29 02:48:17;;;;;;;19.70;15.23;;;615.30;2278.40;;;;;;5029779;28;20375;-68
2023/08/29 02:50:45;;;;;;;23.10;16.17;;;615.30;2278.40;;;;;;5029597;28;20025;-68
2023/08/29 02:53:11;;;;;;;19.50;15.70;;;615.30;2252.80;;;;;;5030131;28;20032;-68
2023/08/29 02:55:36;;;;;;;16.45;14.68;;;615.30;2252.80;;;;;;5029542;28;20025;-68
2023/08/29 02:58:02;;;;;;;17.70;15.35;;;640.00;2201.60;;;;;;5030045;28;20027;-68
2023/08/29 03:00:28;;;;;;;19.05;14.60;;;640.00;2227.20;;;;;;5029416;28;20025;-68
2023/08/29 03:02:55;;;;;;;19.30;14.98;;;640.00;2227.20;;;;;;5029663;28;20083;-68
2023/08/29 03:05:21;;;;;;;21.95;16.02;;;640.10;2227.20;;;;;;5029456;28;20022;-68
2023/08/29 03:07:47;;;;;;;18.73;16.15;;;640.10;2252.80;;;;;;5029105;28;20029;-66
2023/08/29 03:10:13;;;;;;;21.52;16.20;;;640.20;2278.40;;;;;;5029456;28;20426;-66
2023/08/29 03:12:39;;;;;;;21.98;16.13;;;615.20;2406.40;;;;;;5029102;28;20479;-66
2023/08/29 03:15:05;;;;;;;20.92;14.85;;;615.10;2380.80;;;;;;5029443;28;20426;-67
2023/08/29 03:17:31;;;;;;;31.20;16.98;;;614.80;2432.00;;;;;;5029985;28;20014;-65
2023/08/29 03:19:56;;;;;;;19.85;15.70;;;614.90;2432.00;;;;;;5028841;28;20491;-65
2023/08/29 03:22:22;;;;;;;18.67;15.77;;;615.10;2406.40;;;;;;5029117;28;20021;-66
2023/08/29 03:24:48;;;;;;;18.70;14.55;;;615.10;2432.00;;;;;;5028934;28;20057;-65
2023/08/29 03:27:14;;;;;;;26.67;14.65;;;615.20;2406.40;;;;;;5029367;28;20109;-66
2023/08/29 03:29:40;;;;;;;23.85;15.23;;;615.10;2380.80;;;;;;5029012;28;20028;-66
2023/08/29 03:32:06;;;;;;;19.92;15.75;;;615.20;2406.40;;;;;;5029054;28;20476;-66
2023/08/29 03:34:32;;;;;;;20.77;17.08;;;615.10;2432.00;;;;;;5029222;28;20024;-65
2023/08/29 03:36:58;;;;;;;20.50;15.13;;;615.00;2432.00;;;;;;5029178;28;20577;-66
2023/08/29 03:39:23;;;;;;;20.02;17.30;;;614.90;2432.00;;;;;;5029142;28;20014;-66
2023/08/29 03:41:49;;;;;;;22.10;16.92;;;614.70;2432.00;;;;;;5029162;28;20022;-66
2023/08/29 03:44:14;;;;;;;18.65;16.75;;;614.80;2432.00;;;;;;5028250;28;20506;-67
2023/08/29 03:46:40;;;;;;;20.52;16.55;;;614.80;2432.00;;;;;;5027799;28;20449;-66
2023/08/29 03:49:06;;;;;;;22.20;18.08;;;614.70;2432.00;;;;;;5028823;28;20471;-67
2023/08/29 03:51:31;;;;;;;21.10;17.77;;;614.70;2432.00;;;;;;5029193;28;20026;-66
2023/08/29 03:53:57;;;;;;;22.15;17.67;;;614.70;2432.00;;;;;;5028355;28;20033;-66
2023/08/29 03:56:23;;;;;;;25.15;19.02;;;614.50;2432.00;;;;;;5028795;28;20025;-66
2023/08/29 03:58:49;;;;;;;23.83;17.25;;;589.70;2432.00;;;;;;5029191;28;20082;-66
2023/08/29 04:01:19;;;;;;;20.42;16.88;;;589.70;2432.00;;;;;;5029026;28;20476;-66
2023/08/29 04:03:45;;;;;;;22.27;18.00;;;589.70;2432.00;;;;;;5015551;28;20116;-68
2023/08/29 04:06:11;;;;;;;22.35;18.73;;;589.70;2432.00;;;;;;5029140;28;20110;-69
2023/08/29 04:08:36;;;;;;;23.58;18.83;;;589.60;2432.00;;;;;;5026946;28;20026;-68
2023/08/29 04:11:03;;;;;;;26.90;19.25;;;589.10;2432.00;;;;;;5029076;28;20064;-69
2023/08/29 04:13:29;;;;;;;29.90;18.38;;;588.90;2432.00;;;;;;5028343;28;20049;-68
2023/08/29 04:15:55;;;;;;;17.58;13.00;;;589.00;2432.00;;;;;;5029054;28;20076;-67
2023/08/29 04:18:21;;;;;;;16.30;12.35;;;589.30;2432.00;;;;;;5028499;28;20026;-68
2023/08/29 04:20:47;;;;;;;17.50;13.68;;;589.40;2432.00;;;;;;5028562;28;20128;-68
2023/08/29 04:23:13;;;;;;;14.00;12.50;;;589.40;2432.00;;;;;;5028342;28;20527;-67
2023/08/29 04:25:38;;;;;;;20.33;13.07;;;589.60;2432.00;;;;;;5028339;28;20132;-68
2023/08/29 04:28:04;;;;;;;18.48;13.20;;;589.70;2432.00;;;;;;5028275;28;20368;-69
2023/08/29 04:30:30;;;;;;;14.07;10.73;;;589.70;2432.00;;;;;;5027221;28;20040;-69
2023/08/29 04:32:56;;;;;;;12.80;9.45;;;589.70;2432.00;;;;;;5028376;28;20029;-67
2023/08/29 04:35:22;;;;;;;14.40;11.05;;;589.70;2432.00;;;;;;5028812;28;20030;-66
2023/08/29 04:37:48;;;;;;;14.45;11.77;;;589.70;2432.00;;;;;;5015287;28;20074;-68
2023/08/29 04:40:18;;;;;;;13.27;10.45;;;589.60;2432.00;;;;;;5028620;28;20390;-68
2023/08/29 04:42:44;;;;;;;14.35;10.60;;;589.60;2432.00;;;;;;5028376;28;20045;-69
2023/08/29 04:45:11;;;;;;;15.48;11.38;;;589.70;2432.00;;;;;;5028384;28;20430;-68
2023/08/29 04:47:38;;;;;;;14.10;8.85;;;589.70;2432.00;;;;;;5028775;28;20028;-68
2023/08/29 04:50:04;;;;;;;13.40;10.30;;;589.50;2432.00;;;;;;5027463;28;20474;-69
2023/08/29 04:52:30;;;;;;;12.15;7.55;;;589.50;2432.00;;;;;;5028594;28;20022;-67
2023/08/29 04:54:56;;;;;;;10.18;6.85;;;589.60;2432.00;;;;;;5027885;28;20468;-68
2023/08/29 04:57:22;;;;;;;14.35;9.30;;;589.60;2432.00;;;;;;5028685;28;20032;-68
2023/08/29 04:59:48;;;;;;;12.73;8.27;;;589.60;2432.00;;;;;;5027955;28;20025;-67
2023/08/29 05:02:15;;;;;;;8.68;6.88;;;589.30;2432.00;;;;;;5028439;28;20021;-69
2023/08/29 05:04:42;;;;;;;8.63;6.60;;;589.20;2432.00;;;;;;5028198;28;20368;-68
2023/08/29 05:07:09;;;;;;;7.55;4.55;;;589.20;2432.00;;;;;;5029163;28;20034;-69
2023/08/29 05:09:35;;;;;;;6.22;3.90;;;589.30;2432.00;;;;;;5031325;28;20399;-69
2023/08/29 05:12:01;;;;;;;5.50;3.55;;;589.20;2432.00;;;;;;5031767;28;20078;-69
2023/08/29 05:14:27;;;;;;;4.90;3.38;;;589.10;2432.00;;;;;;5031681;28;20108;-70
2023/08/29 05:16:53;;;;;;;7.68;3.30;;;588.90;2432.00;;;;;;5031710;28;20063;-70
2023/08/29 05:19:18;;;;;;;7.47;3.75;;;588.80;2432.00;;;;;;5031299;28;20061;-69
2023/08/29 05:21:44;;;;;;;10.63;3.72;;;564.10;2432.00;;;;;;5030817;28;20017;-69
2023/08/29 05:24:11;;;;;;;8.27;3.78;;;564.00;2432.00;;;;;;5031240;28;20029;-70
2023/08/29 05:26:37;;;;;;;8.00;3.75;;;563.80;2432.00;;;;;;5031553;28;20026;-69
2023/08/29 05:29:02;;;;;;;5.25;3.47;;;563.60;2432.00;;;;;;5031203;28;20032;-69
2023/08/29 05:31:29;;;;;;;6.00;3.60;;;563.50;2432.00;;;;;;5031336;28;20017;-67
2023/08/29 05:33:55;;;;;;;8.48;4.30;;;563.60;2432.00;;;;;;5030495;28;20026;-69
2023/08/29 05:36:20;;;;;;;8.25;4.35;;;563.50;2432.00;;;;;;5019307;28;20084;-69
2023/08/29 05:38:47;;;;;;;8.95;4.47;;;563.30;2432.00;;;;;;5030959;28;20040;-69
2023/08/29 05:41:13;;;;;;;5.88;3.70;;;563.20;2432.00;;;;;;5031253;28;20026;-68
2023/08/29 05:43:39;;;;;;;5.65;3.88;;;538.50;2406.40;;;;;;5030499;28;20095;-69
2023/08/29 05:46:04;;;;;;;11.35;4.03;;;538.40;2406.40;;;;;;5031564;28;20025;-68
2023/08/29 05:48:30;;;;;;;8.25;4.35;;;538.30;2406.40;;;;;;5030656;28;20468;-68
2023/08/29 05:50:56;;;;;;;6.95;3.47;;;538.20;2406.40;;;;;;5030696;28;20045;-68
2023/08/29 05:53:21;;;;;;;11.65;4.00;;;538.10;2406.40;;;;;;5031111;28;20513;-68
2023/08/29 05:55:47;;;;;;;7.75;3.35;;;538.10;2406.40;;;;;;5030807;28;20476;-69
2023/08/29 05:58:13;;;;;;;8.13;3.70;;;538.20;2406.40;;;;;;5030956;28;20117;-69
2023/08/29 06:00:39;;;;;;;7.65;3.55;;;538.00;2406.40;;;;;;5030723;28;20494;-69
2023/08/29 06:03:07;;;;;;;7.68;3.80;;;538.10;2406.40;;;;;;5030848;28;20452;-69
2023/08/29 06:05:33;;;;;;;8.85;3.78;;;538.10;2406.40;;;;;;5029795;28;20021;-69
2023/08/29 06:08:02;;;;;;;7.65;3.40;;;538.00;2406.40;;;;;;5017170;28;20108;-70
2023/08/29 06:10:29;;;;;;;7.68;3.67;;;537.80;2406.40;;;;;;5029171;28;20490;-68
2023/08/29 06:12:55;;;;;;;11.80;4.28;;;538.10;2406.40;;;;;;5024961;28;20038;-69
2023/08/29 06:15:22;;;;;;;8.25;3.80;;;538.20;2406.40;;;;;;5019540;28;20032;-69
2023/08/29 06:17:48;;;;;;;7.18;4.40;;;538.20;2406.40;;;;;;5028662;28;20037;-70
2023/08/29 06:20:14;;;;;;;9.23;4.05;;;538.10;2406.40;;;;;;5028690;28;20032;-69
2023/08/29 06:22:40;;;;;;;9.13;4.60;;;538.20;2406.40;;;;;;5028062;28;20041;-69
2023/08/29 06:25:06;;;;;;;11.40;5.68;;;538.10;2406.40;;;;;;5018308;28;20490;-69
2023/08/29 06:27:33;;;;;;;12.55;5.60;;;537.90;2406.40;;;;;;5026275;28;20379;-68
2023/08/29 06:29:59;;;;;;;9.60;4.20;;;538.10;2406.40;;;;;;5028755;28;20029;-68
2023/08/29 06:32:25;;;;;;;4.90;3.13;;;538.30;2406.40;;;;;;5028859;28;20097;-68
2023/08/29 06:34:51;;;;;;;9.90;3.58;;;538.50;2406.40;;;;;;5028638;28;20104;-70
2023/08/29 06:37:16;;;;;;;11.05;4.53;;;563.40;2432.00;;;;;;5028206;28;20036;-69
2023/08/29 06:39:45;;;;;;;12.30;7.18;;;563.20;2432.00;;;;;;5028844;28;20041;-68
2023/08/29 06:42:10;;;;;;;9.23;4.72;;;538.40;2406.40;;;;;;5028402;28;20053;-67
2023/08/29 06:44:36;;;;;;;7.85;4.68;;;538.40;2406.40;;;;;;5017134;28;20465;-68
2023/08/29 06:47:02;;;;;;;8.52;5.50;;;538.30;2406.40;;;;;;5021305;28;20032;-68
2023/08/29 06:49:28;;;;;;;9.30;5.05;;;538.40;2406.40;;;;;;5019823;28;20033;-69
2023/08/29 06:51:53;;;;;;;8.38;4.30;;;538.50;2406.40;;;;;;5028480;28;20030;-69
2023/08/29 06:54:19;;;;;;;8.35;4.15;;;563.40;2432.00;;;;;;5028394;28;20466;-69
2023/08/29 06:56:45;;;;;;;10.27;3.78;;;563.40;2432.00;;;;;;5028161;28;20024;-69
2023/08/29 06:59:11;;;;;;;9.68;4.20;;;563.40;2432.00;;;;;;5028126;28;20367;-69
2023/08/29 07:01:37;;;;;;;5.32;3.17;;;563.40;2432.00;;;;;;5027510;28;20044;-63
2023/08/29 07:04:04;;;;;;;5.07;3.28;;;563.40;2432.00;;;;;;5028270;28;20037;-63
2023/08/29 07:06:30;;;;;;;7.35;3.42;;;563.50;2432.00;;;;;;5027289;28;20104;-63
2023/08/29 07:08:55;;;;;;;7.72;4.28;;;563.50;2432.00;;;;;;5027898;28;20134;-64
2023/08/29 07:11:21;;;;;;;7.35;4.03;;;563.60;2432.00;;;;;;5027357;28;20029;-63
2023/08/29 07:13:47;;;;;;;4.95;3.47;;;563.80;2432.00;;;;;;5026861;28;20030;-62
2023/08/29 07:16:12;;;;;;;5.22;3.58;;;563.90;2432.00;;;;;;5027799;28;20531;-63
2023/08/29 07:18:38;;;;;;;8.68;3.88;;;563.90;2432.00;;;;;;5027464;28;20021;-64
2023/08/29 07:21:04;;;;;;;5.82;4.20;;;564.00;2432.00;;;;;;5027847;28;20079;-63
2023/08/29 07:23:30;;;;;;;7.20;3.95;;;564.10;2432.00;;;;;;5027408;28;20555;-61
2023/08/29 07:25:56;;;;;;;6.22;4.07;;;588.80;2432.00;;;;;;5027141;28;20068;-63
2023/08/29 07:28:23;;;;;;;5.93;3.33;;;588.80;2432.00;;;;;;5027717;28;20074;-64
2023/08/29 07:30:51;;;;;;;6.13;3.95;;;589.10;2432.00;;;;;;5026604;28;20040;-65
2023/08/29 07:33:18;;;;;;;7.13;3.63;;;589.20;2432.00;;;;;;5027522;28;20041;-63
2023/08/29 07:35:45;;;;;;;7.80;3.58;;;589.50;2432.00;;;;;;5027715;28;20032;-64
2023/08/29 07:38:12;;;;;;;6.10;3.45;;;589.60;2432.00;;;;;;5027171;28;20030;-61
2023/08/29 07:40:37;;;;;;;7.45;3.75;;;589.70;2432.00;;;;;;5026364;28;20083;-63
2023/08/29 07:43:06;;;;;;;5.57;3.47;;;614.50;2432.00;;;;;;5026776;28;20057;-63
2023/08/29 07:45:33;;;;;;;7.32;3.88;;;614.50;2432.00;;;;;;5027274;28;20029;-65
2023/08/29 07:47:59;;;;;;;6.30;3.80;;;614.50;2432.00;;;;;;5027425;28;20479;-64
2023/08/29 07:50:26;;;;;;;5.13;2.83;;;614.50;2432.00;;;;;;5026697;28;20114;-65
2023/08/29 07:52:52;;;;;;;6.82;3.33;;;614.60;2432.00;;;;;;5026535;28;20115;-63
2023/08/29 07:55:17;;;;;;;5.25;3.15;;;614.80;2432.00;;;;;;5026996;28;20053;-64
2023/08/29 07:57:43;;;;;;;5.93;3.22;;;615.10;2432.00;;;;;;5026898;28;20490;-63
2023/08/29 08:00:10;;;;;;;5.57;3.55;;;640.00;2432.00;;;;;;5018530;28;20059;-63
2023/08/29 08:02:39;;;;;;;7.05;3.70;;;640.60;2432.00;;;;;;5019998;28;20503;-63
2023/08/29 08:05:12;;;;;;;8.35;3.95;;;665.60;2432.00;;;;;;5006859;28;20049;-63
2023/08/29 08:07:39;;;;;;;7.88;3.78;;;665.70;2432.00;;;;;;5023312;28;20104;-63
2023/08/29 08:10:05;;;;;;;6.13;3.47;;;665.80;2432.00;;;;;;5027176;28;20033;-66
2023/08/29 08:12:31;;;;;;;5.95;3.70;;;666.00;2432.00;;;;;;5026262;28;20950;-62
2023/08/29 08:14:57;;;;;;;7.10;4.38;;;716.80;2380.80;;;;;;5027024;28;20395;-62
2023/08/29 08:17:23;;;;;;;5.40;4.03;;;;;;;;;;5027381;28;20026;-61
2023/08/29 08:19:49;;;;;;;4.78;3.72;;;;;;;;;;5026715;28;20029;-62
2023/08/29 08:22:15;;;;;;;5.57;3.35;;;;;;;;;;5026840;28;20022;-61
2023/08/29 08:24:42;;;;;;;4.63;3.30;;;691.80;2278.40;;;;;;5027219;28;20033;-61
2023/08/29 08:27:08;;;;;;;4.65;3.63;;;;;;;;;;5026795;28;20021;-63
2023/08/29 08:29:34;;;;;;;7.90;3.40;;;;;;;;;;5027286;28;20017;-63
2023/08/29 08:32:01;;;;;;;7.97;3.90;;;;;;;;;;5026523;28;20430;-63
2023/08/29 08:34:27;;;;;;;5.75;3.65;;;;;;;;;;5026927;28;20057;-64
2023/08/29 08:36:52;;;;;;;6.60;4.40;;;717.70;2201.60;;;;;;5026935;28;20071;-63
2023/08/29 08:39:18;;;;;;;8.20;4.47;;;717.70;2176.00;;;;;;5026672;28;20037;-65
2023/08/29 08:41:44;;;;;;;5.43;4.13;;;768.60;2073.60;;;;;;5026173;28;20018;-62
2023/08/29 08:44:13;;;;;;;5.30;4.03;;;794.40;2048.00;;;;;;5031222;28;20064;-62
2023/08/29 08:46:39;;;;;;;4.97;4.10;;;;;;;;;;5032191;28;20045;-60
2023/08/29 08:49:07;;;;;;;6.40;4.88;;;;;;;;;;5032263;28;20444;-63
2023/08/29 08:51:36;;;;;;;10.98;5.80;;;;;;;;;;5032110;28;20021;-61
2023/08/29 08:54:02;;;;;;;9.55;4.97;;;;;;;;;;5032100;28;20364;-61
2023/08/29 08:56:28;;;;;;;9.07;5.35;;;;;;;;;;5031540;28;20484;-62
2023/08/29 08:58:54;;;;;;;7.53;4.95;;;;;;;;;;5032077;28;20030;-64
2023/08/29 09:01:20;;;;;;;9.43;5.05;;;;;;;;;;5030628;28;20380;-65
2023/08/29 09:03:47;;;;;;;5.68;4.40;;;;;;;;;;5031560;28;20033;-61
2023/08/29 09:06:15;;;;;;;8.00;4.32;;;;;;;;;;5031684;28;20026;-64
2023/08/29 09:08:41;;;;;;;7.57;5.00;;;;;;;;;;5031752;28;20052;-65
2023/08/29 09:11:08;;;;;;;8.30;6.30;;;;;;;;;;5031423;28;20028;-66
2023/08/29 09:13:34;;;;;;;8.10;5.15;;;;;;;;;;5031473;28;20031;-64
2023/08/29 09:16:01;;;;;;;6.97;4.68;;;;;;;;;;5031643;28;20037;-61
2023/08/29 09:18:31;;;;;;;6.68;4.53;;;;;;;;;;5031331;28;20017;-63
2023/08/29 09:20:59;;;;;;;7.88;4.68;;;;;;;;;;5031097;28;20021;-65
2023/08/29 09:23:28;;;;;;;7.70;5.00;;;;;;;;;;5031411;28;20056;-61
2023/08/29 09:25:55;;;;;;;10.65;4.70;;;;;;;;;;5031252;28;20024;-61
2023/08/29 09:28:30;;;;;;;8.35;5.20;;;;;;;;;;5031394;28;20387;-61
2023/08/29 09:31:04;;;;;;;8.32;5.07;;;;;;;;;;5030928;28;20017;-62
2023/08/29 09:33:30;;;;;;;10.93;5.32;;;;;;;;;;5030658;28;20026;-61
2023/08/29 09:35:56;;;;;;;10.40;5.22;;;;;;;;;;5030732;28;20232;-62
2023/08/29 09:38:22;;;;;;;15.13;6.65;;;;;;;;;;5030619;28;20035;-65
2023/08/29 09:40:48;;;;;;;11.13;8.43;;;;;;;;;;5030596;28;20052;-64
2023/08/29 09:43:15;;;;;;;9.32;6.55;;;;;;;;;;5030054;28;20049;-63
2023/08/29 09:45:41;;;;;;;10.80;5.75;;;;;;;;;;5030927;28;20449;-65
2023/08/29 09:48:08;;;;;;;8.27;5.28;;;;;;;;;;5030745;28;20022;-64
2023/08/29 09:50:35;;;;;;;9.73;6.32;;;;;;;;;;5030766;28;20030;-63
2023/08/29 09:53:02;;;;;;;16.98;6.05;;;;;;;;;;5030768;28;20030;-66
2023/08/29 09:55:35;;;;;;;6.97;5.40;;;794.10;1843.20;;;;;;5030674;28;20053;-64
2023/08/29 09:58:01;;;;;;;19.35;13.38;;;794.40;1843.20;;;;;;5030936;28;20021;-61
2023/08/29 10:00:28;;;;;;;15.93;10.13;;;;;;;;;;5030009;28;20030;-65
2023/08/29 10:02:58;;;;;;;11.75;5.47;;;844.90;1868.80;;;;;;5030826;28;20033;-61
2023/08/29 10:05:31;;;;;;;8.98;5.57;;;;;;;;;;5030623;28;20120;-64
2023/08/29 10:07:58;;;;;;;9.85;5.90;;;;;;;;;;5030020;28;20025;-65
2023/08/29 10:10:24;;;;;;;7.93;5.25;;;;;;;;;;5030504;28;20507;-62
2023/08/29 10:12:51;;;;;;;8.20;5.93;;;845.40;1792.00;;;;;;5029823;28;20029;-62
2023/08/29 10:15:20;;;;;;;8.18;5.90;;;;;;;;;;5030076;28;20472;-63
2023/08/29 10:17:46;;;;;;;8.88;5.18;;;;;;;;;;5030336;28;20044;-62
2023/08/29 10:20:13;;;;;;;8.25;5.82;;;;;;;;;;5030886;28;20057;-61
2023/08/29 10:22:48;;;;;;;6.80;6.10;;;;;;;;;;5029734;28;20028;-63
2023/08/29 10:25:14;;;;;;;9.93;5.53;;;;;;;;;;5030258;28;20034;-63
2023/08/29 10:27:40;;;;;;;13.35;5.95;;;;;;;;;;5030767;28;20152;-63
2023/08/29 10:30:07;;;;;;;10.27;6.00;;;;;;;;;;5030129;28;20091;-62
2023/08/29 10:32:34;;;;;;;8.02;5.88;;;;;;;;;;5030334;28;20025;-62
2023/08/29 10:35:00;;;;;;;10.02;6.75;;;819.80;1766.40;;;;;;5030192;28;20387;-63
2023/08/29 10:37:29;;;;;;;9.32;6.25;;;820.10;1740.80;;;;;;5029738;28;20099;-66
2023/08/29 10:40:11;;;;;;;8.15;5.60;;;819.90;1792.00;;;;;;5029717;28;20107;-63
2023/08/29 10:42:54;;;;;;;7.07;5.85;;;845.10;1740.80;;;;;;5029209;28;20080;-65
2023/08/29 10:45:43;;;;;;;8.52;6.90;;;819.90;1740.80;;;;;;5029718;28;20113;-60
2023/08/29 10:48:09;;;;;;;16.15;6.15;;;819.80;1766.40;;;;;;5047455;28;20029;-64
2023/08/29 10:50:37;;;;;;;7.75;5.93;;;819.50;1766.40;;;;;;5047354;28;20029;-62
2023/08/29 10:53:04;;;;;;;7.78;6.47;;;819.30;1766.40;;;;;;5047688;28;20553;-61
2023/08/29 10:55:32;;;;;;;11.15;7.53;;;794.50;1766.40;;;;;;5047123;28;20055;-64
2023/08/29 10:58:00;;;;;;;10.13;7.32;;;819.80;1766.40;;;;;;5030919;28;20041;-61
2023/08/29 11:00:41;;;;;;;10.00;6.72;;;820.10;1817.60;;;;;;5046660;28;20025;-62
2023/08/29 11:03:08;;;;;;;11.90;7.78;;;820.10;1792.00;;;;;;5046914;28;20029;-63
2023/08/29 11:05:40;;;;;;;10.15;6.93;;;820.10;1766.40;;;;;;5046538;28;20052;-61
2023/08/29 11:08:22;;;;;;;11.05;6.15;;;845.00;1766.40;;;;;;5046703;28;20036;-62
2023/08/29 11:11:17;;;;;;;11.57;6.93;;;845.10;1689.60;;;;;;5046679;28;20086;-68
2023/08/29 11:13:56;;;;;;;9.98;6.35;;;820.00;1715.20;;;;;;5046951;28;20017;-65
2023/08/29 11:16:22;;;;;;;10.13;7.05;;;819.50;1792.00;;;;;;5044550;28;20036;-61
2023/08/29 11:18:57;;;;;;;8.73;6.15;;;819.80;1715.20;;;;;;5045281;28;20039;-61
2023/08/29 11:21:24;;;;;;;8.88;6.05;;;819.80;1664.00;;;;;;5044927;28;20040;-65
2023/08/29 11:23:50;;;;;;;8.25;6.38;;;820.10;1587.20;;;;;;5044568;28;20041;-61
2023/08/29 11:26:16;;;;;;;10.63;8.27;;;845.20;1664.00;;;;;;5027758;28;20033;-62
2023/08/29 11:28:43;;;;;;;8.80;6.95;;;;;;;;;;5026747;28;20030;-62
2023/08/29 11:31:09;;;;;;;7.82;6.68;;;;;;;;;;5027374;28;20439;-62
2023/08/29 11:33:36;;;;;;;12.63;6.75;;;;;;;;;;5027843;28;20029;-63
2023/08/29 11:36:03;;;;;;;8.10;6.05;;;;;;;;;;5027115;28;20075;-67
2023/08/29 11:38:30;;;;;;;10.02;5.60;;;;;;;;;;5026468;28;20021;-66
2023/08/29 11:40:58;;;;;;;11.18;5.20;;;845.60;1561.60;;;;;;5026658;28;20356;-64
2023/08/29 11:43:24;;;;;;;14.10;7.13;;;845.40;1561.60;;;;;;5026562;28;20049;-66
2023/08/29 11:45:57;;;;;;;12.18;8.50;;;845.40;1612.80;;;;;;5026310;28;20030;-66
2023/08/29 11:48:28;;;;;;;10.00;7.70;;;844.90;1689.60;;;;;;5027550;28;20439;-65
2023/08/29 11:51:00;;;;;;;8.32;7.35;;;819.80;1689.60;;;;;;5027055;28;20242;-61
2023/08/29 11:53:29;;;;;;;13.50;7.15;;;819.90;1664.00;;;;;;5027151;28;20041;-64
2023/08/29 11:55:55;;;;;;;10.70;6.68;;;819.80;1638.40;;;;;;5023504;28;20044;-62
2023/08/29 11:58:24;;;;;;;10.25;7.32;;;819.80;1638.40;;;;;;5024987;28;20021;-63
2023/08/29 12:00:52;;;;;;;14.15;7.40;;;819.80;1612.80;;;;;;5025052;28;20076;-63
2023/08/29 12:03:22;;;;;;;10.88;7.53;;;820.10;1638.40;;;;;;5026228;28;20041;-64
2023/08/29 12:05:48;;;;;;;10.20;9.10;;;845.20;1638.40;;;;;;5026744;28;20033;-62
2023/08/29 12:08:14;;;;;;;12.30;8.85;;;845.20;1664.00;;;;;;5026700;28;20029;-63
2023/08/29 12:10:51;;;;;;;16.17;12.65;;;845.20;1664.00;;;;;;5027581;28;20112;-66
2023/08/29 12:13:16;;;;;;;16.45;12.32;;;845.00;1689.60;;;;;;5027873;28;20034;-63
2023/08/29 12:15:42;;;;;;;14.27;12.65;;;844.80;1715.20;;;;;;5028767;28;20039;-65
2023/08/29 12:18:18;;;;;;;12.48;11.27;;;845.00;1715.20;;;;;;5032169;28;20031;-66
2023/08/29 12:20:44;;;;;;;14.90;12.32;;;845.20;1689.60;;;;;;5032595;28;20026;-65
2023/08/29 12:23:10;;;;;;;15.82;12.40;;;845.30;1689.60;;;;;;5032555;28;20066;-64
2023/08/29 12:25:35;;;;;;;17.77;10.88;;;844.90;1689.60;;;;;;5032207;28;20216;-66
2023/08/29 12:28:01;;;;;;;12.55;10.48;;;845.10;1689.60;;;;;;5032133;28;20349;-64